createdAt,value
2023-03-07T00:00:38.673Z,5.90
2023-03-07T00:04:47.167Z,6.43
2023-03-07T00:08:55.720Z,6.18
2023-03-07T00:12:59.421Z,7.88
2023-03-07T00:17:03.399Z,5.95
2023-03-07T00:21:10.071Z,4.88
2023-03-07T00:25:15.391Z,5.55
2023-03-07T00:29:18.873Z,6.07
2023-03-07T00:33:23.221Z,4.95
2023-03-07T00:37:26.870Z,6.90
2023-03-07T00:41:30.589Z,6.00
2023-03-07T00:45:34.140Z,8.00
2023-03-07T00:49:37.650Z,5.20
2023-03-07T00:53:41.611Z,6.50
2023-03-07T00:57:45.435Z,5.55
2023-03-07T01:01:48.966Z,4.93
2023-03-07T01:05:54.665Z,5.32
2023-03-07T01:09:59.414Z,4.70
2023-03-07T01:14:06.268Z,4.53
2023-03-07T01:18:12.334Z,7.22
2023-03-07T01:22:16.362Z,4.35
2023-03-07T01:26:26.160Z,5.38
2023-03-07T01:30:30.725Z,7.38
2023-03-07T01:34:34.433Z,5.38
2023-03-07T01:38:37.929Z,6.47
2023-03-07T01:42:42.564Z,4.90
2023-03-07T01:46:49.145Z,5.45
2023-03-07T01:50:53.215Z,6.40
2023-03-07T01:55:01.278Z,5.15
2023-03-07T01:59:05.860Z,5.63
2023-03-07T02:03:30.391Z,6.55
2023-03-07T02:07:42.685Z,7.13
2023-03-07T02:11:48.348Z,8.68
2023-03-07T02:15:52.454Z,6.93
2023-03-07T02:20:32.270Z,6.70
2023-03-07T02:24:46.336Z,8.23
2023-03-07T02:28:50.241Z,3.47
2023-03-07T02:32:54.142Z,5.63
2023-03-07T02:37:07.451Z,5.93
2023-03-07T02:41:13.229Z,6.45
2023-03-07T02:45:19.325Z,6.13
2023-03-07T02:49:23.989Z,7.03
2023-03-07T02:53:28.782Z,6.63
2023-03-07T02:57:32.451Z,6.50
2023-03-07T03:01:37.706Z,7.93
2023-03-07T03:05:41.308Z,6.97
2023-03-07T03:09:44.872Z,9.43
2023-03-07T03:13:48.716Z,5.45
2023-03-07T03:17:56.557Z,8.32
2023-03-07T03:22:01.183Z,4.53
2023-03-07T03:26:11.708Z,6.72
2023-03-07T03:30:16.116Z,9.27
2023-03-07T03:34:20.913Z,4.22
2023-03-07T03:38:27.676Z,5.78
2023-03-07T03:42:32.895Z,10.18
2023-03-07T03:46:38.366Z,7.25
2023-03-07T03:50:42.102Z,5.28
2023-03-07T03:54:45.778Z,4.00
2023-03-07T03:58:58.484Z,5.80
2023-03-07T04:03:02.322Z,6.22
2023-03-07T04:07:06.103Z,7.32
2023-03-07T04:11:09.833Z,6.50
2023-03-07T04:15:14.545Z,6.35
2023-03-07T04:19:18.454Z,7.53
2023-03-07T04:23:24.849Z,6.05
2023-03-07T04:27:28.453Z,5.15
2023-03-07T04:31:32.659Z,4.82
2023-03-07T04:35:39.085Z,7.25
2023-03-07T04:39:42.686Z,5.32
2023-03-07T04:43:48.359Z,6.03
2023-03-07T04:47:51.898Z,4.90
2023-03-07T04:51:56.392Z,3.05
2023-03-07T04:56:07.705Z,5.20
2023-03-07T05:00:12.422Z,6.88
2023-03-07T05:04:16.383Z,4.15
2023-03-07T05:08:22.076Z,5.80
2023-03-07T05:12:26.456Z,6.22
2023-03-07T05:16:31.159Z,8.82
2023-03-07T05:20:39.809Z,11.32
2023-03-07T05:24:44.118Z,10.55
2023-03-07T05:28:47.758Z,11.85
2023-03-07T05:32:51.690Z,8.02
2023-03-07T05:36:55.218Z,7.38
2023-03-07T05:40:58.711Z,3.15
2023-03-07T05:45:02.432Z,8.07
2023-03-07T05:49:06.056Z,6.20
2023-03-07T05:53:09.819Z,4.78
2023-03-07T05:57:15.869Z,8.60
2023-03-07T06:01:19.718Z,4.45
2023-03-07T06:05:25.361Z,9.40
2023-03-07T06:09:30.035Z,9.13
2023-03-07T06:13:36.458Z,7.38
2023-03-07T06:17:40.848Z,7.03
2023-03-07T06:21:46.381Z,16.63
2023-03-07T06:25:49.989Z,10.00
2023-03-07T06:29:54.177Z,5.72
2023-03-07T06:33:57.948Z,9.13
2023-03-07T06:38:02.877Z,4.88
2023-03-07T06:42:06.527Z,4.78
2023-03-07T06:46:11.147Z,6.72
2023-03-07T06:50:23.782Z,7.05
2023-03-07T06:54:34.364Z,6.40
2023-03-07T06:58:38.334Z,5.60
2023-03-07T07:02:44.573Z,3.60
2023-03-07T07:06:48.938Z,3.70
2023-03-07T07:10:53.603Z,3.03
2023-03-07T07:14:57.181Z,3.33
2023-03-07T07:19:00.644Z,6.28
2023-03-07T07:23:04.555Z,4.05
2023-03-07T07:27:08.216Z,2.83
2023-03-07T07:31:11.677Z,4.32
2023-03-07T07:35:18.091Z,4.68
2023-03-07T07:39:22.144Z,6.53
2023-03-07T07:43:25.644Z,4.47
2023-03-07T07:47:41.697Z,6.43
2023-03-07T07:51:45.258Z,6.55
2023-03-07T07:55:49.220Z,9.93
2023-03-07T07:59:54.149Z,5.38
2023-03-07T08:03:57.748Z,2.83
2023-03-07T08:08:01.184Z,6.65
2023-03-07T08:12:04.988Z,5.28
2023-03-07T08:16:18.001Z,4.03
2023-03-07T08:20:23.751Z,7.20
2023-03-07T08:24:39.889Z,5.30
2023-03-07T08:28:44.173Z,5.70
2023-03-07T08:32:53.488Z,6.78
2023-03-07T08:36:57.067Z,4.35
2023-03-07T08:41:06.607Z,5.38
2023-03-07T08:45:11.455Z,5.10
2023-03-07T08:49:15.841Z,5.50
2023-03-07T08:53:19.874Z,4.32
2023-03-07T08:57:23.468Z,6.05
2023-03-07T09:01:27.099Z,8.43
2023-03-07T09:05:30.875Z,5.40
2023-03-07T09:09:34.398Z,4.97
2023-03-07T09:13:49.790Z,6.10
2023-03-07T09:17:55.182Z,5.88
2023-03-07T09:21:58.666Z,6.03
2023-03-07T09:26:02.764Z,4.88
2023-03-07T09:30:07.884Z,6.60
2023-03-07T09:34:11.783Z,4.82
2023-03-07T09:38:15.773Z,5.32
2023-03-07T09:42:40.558Z,5.82
2023-03-07T09:47:04.441Z,8.73
2023-03-07T09:51:42.189Z,3.50
2023-03-07T09:55:47.726Z,9.50
2023-03-07T09:59:58.791Z,5.47
2023-03-07T10:04:05.830Z,4.20
2023-03-07T10:08:16.030Z,6.25
2023-03-07T10:12:37.229Z,3.47
2023-03-07T10:17:05.624Z,4.82
2023-03-07T10:21:28.456Z,4.93
2023-03-07T10:26:26.834Z,5.43
2023-03-07T10:30:35.404Z,4.47
2023-03-07T10:34:40.149Z,3.67
2023-03-07T10:38:56.781Z,6.55
2023-03-07T10:43:01.320Z,3.80
2023-03-07T10:47:04.900Z,5.05
2023-03-07T10:51:36.183Z,6.97
2023-03-07T10:55:46.989Z,6.13
2023-03-07T10:59:51.618Z,4.07
2023-03-07T11:04:05.379Z,3.60
2023-03-07T11:08:33.629Z,4.00
2023-03-07T11:12:46.237Z,5.43
2023-03-07T11:16:52.317Z,4.07
2023-03-07T11:20:56.085Z,4.05
2023-03-07T11:25:04.278Z,2.95
2023-03-07T11:29:14.059Z,3.80
2023-03-07T11:33:29.063Z,2.53
2023-03-07T11:37:39.647Z,2.40
2023-03-07T11:41:48.139Z,2.33
2023-03-07T11:46:04.319Z,3.05
2023-03-07T11:50:13.898Z,2.78
2023-03-07T11:54:29.172Z,2.03
2023-03-07T11:59:07.015Z,3.42
2023-03-07T12:03:27.399Z,3.85
2023-03-07T12:07:55.062Z,6.20
2023-03-07T12:12:39.435Z,2.80
2023-03-07T12:16:48.635Z,2.53
2023-03-07T12:21:04.260Z,3.33
2023-03-07T12:25:30.146Z,2.47
2023-03-07T12:29:33.926Z,1.90
2023-03-07T12:33:48.438Z,2.25
2023-03-07T12:38:15.986Z,1.67
2023-03-07T12:42:41.549Z,1.55
2023-03-07T12:47:02.318Z,5.40
2023-03-07T12:51:14.240Z,2.28
2023-03-07T12:55:36.898Z,3.42
2023-03-07T12:59:45.018Z,2.08
2023-03-07T13:04:22.918Z,2.72
2023-03-07T13:08:27.779Z,3.90
2023-03-07T13:12:38.718Z,3.25
2023-03-07T13:16:47.138Z,2.90
2023-03-07T13:21:12.248Z,4.40
2023-03-07T13:25:28.022Z,2.47
2023-03-07T13:30:07.996Z,3.20
2023-03-07T13:34:46.983Z,2.83
2023-03-07T13:38:50.564Z,2.63
2023-03-07T13:42:54.197Z,3.42
2023-03-07T13:47:02.827Z,3.65
2023-03-07T13:51:10.738Z,3.08
2023-03-07T13:55:22.387Z,3.00
2023-03-07T13:59:28.559Z,1.67
2023-03-07T14:03:38.546Z,3.47
2023-03-07T14:07:43.530Z,4.20
2023-03-07T14:12:12.392Z,2.88
2023-03-07T14:16:42.110Z,3.08
2023-03-07T14:21:06.091Z,2.38
2023-03-07T14:25:20.278Z,3.67
2023-03-07T14:29:26.808Z,4.00
2023-03-07T14:33:36.124Z,4.93
2023-03-07T14:37:40.149Z,3.60
2023-03-07T14:41:57.876Z,4.75
2023-03-07T14:46:08.588Z,4.10
2023-03-07T14:50:19.816Z,2.80
2023-03-07T14:54:30.041Z,3.85
2023-03-07T14:58:45.658Z,4.22
2023-03-07T15:03:04.662Z,2.88
2023-03-07T15:07:11.615Z,5.50
2023-03-07T15:11:45.411Z,4.72
2023-03-07T15:15:55.361Z,4.68
2023-03-07T15:20:11.215Z,6.70
2023-03-07T15:24:33.666Z,13.95
2023-03-07T15:28:40.667Z,11.05
2023-03-07T15:32:44.239Z,37.22
2023-03-07T15:36:47.828Z,33.33
2023-03-07T15:40:51.557Z,43.72
2023-03-07T15:44:59.376Z,27.80
2023-03-07T15:49:03.152Z,23.20
2023-03-07T15:53:20.004Z,15.25
2023-03-07T16:01:35.883Z,7.72
2023-03-07T16:05:39.932Z,8.25
2023-03-07T16:09:43.493Z,8.82
2023-03-07T16:13:48.494Z,4.72
2023-03-07T16:17:53.604Z,3.17
2023-03-07T16:21:57.098Z,3.10
2023-03-07T16:26:04.077Z,3.92
2023-03-07T16:30:13.718Z,3.78
2023-03-07T16:34:23.352Z,3.80
2023-03-07T16:38:29.805Z,5.70
2023-03-07T16:46:36.762Z,2.78
2023-03-07T16:50:40.225Z,4.78
2023-03-07T16:54:46.298Z,1.70
2023-03-07T16:58:49.840Z,5.55
2023-03-07T17:02:55.345Z,3.15
2023-03-07T17:07:04.866Z,4.25
2023-03-07T17:11:22.686Z,2.80
2023-03-07T17:15:31.184Z,3.13
2023-03-07T17:19:35.081Z,4.78
2023-03-07T17:23:38.576Z,4.05
2023-03-07T17:27:46.865Z,2.25
2023-03-07T17:31:50.342Z,2.20
2023-03-07T17:35:53.805Z,5.20
2023-03-07T17:39:58.423Z,2.17
2023-03-07T17:44:02.234Z,4.60
2023-03-07T17:48:05.796Z,3.00
2023-03-07T17:52:09.404Z,4.05
2023-03-07T17:56:13.683Z,3.30
2023-03-07T18:00:20.575Z,4.20
2023-03-07T18:04:24.388Z,2.80
2023-03-07T18:08:29.011Z,3.08
2023-03-07T18:12:32.503Z,5.07
2023-03-07T18:16:36.052Z,2.85
2023-03-07T18:20:40.658Z,2.10
2023-03-07T18:24:44.129Z,3.15
2023-03-07T18:28:49.599Z,2.13
2023-03-07T18:32:55.703Z,3.80
2023-03-07T18:36:59.356Z,2.60
2023-03-07T18:41:17.651Z,3.20
2023-03-07T18:45:21.373Z,3.63
2023-03-07T18:49:24.985Z,2.75
2023-03-07T18:53:28.623Z,4.90
2023-03-07T18:57:32.374Z,2.58
2023-03-07T19:01:37.464Z,5.45
2023-03-07T19:05:49.334Z,4.50
2023-03-07T19:09:53.914Z,4.13
2023-03-07T19:13:58.446Z,4.43
2023-03-07T19:18:02.290Z,4.65
2023-03-07T19:22:06.140Z,3.78
2023-03-07T19:26:13.309Z,3.55
2023-03-07T19:30:19.211Z,3.88
2023-03-07T19:34:23.983Z,3.23
2023-03-07T19:38:30.082Z,3.85
2023-03-07T19:42:35.832Z,2.47
2023-03-07T19:46:41.091Z,4.57
2023-03-07T19:50:45.444Z,5.80
2023-03-07T19:54:53.599Z,4.30
2023-03-07T19:58:58.963Z,3.90
2023-03-07T20:03:02.417Z,5.05
2023-03-07T20:07:05.967Z,4.32
2023-03-07T20:11:15.184Z,4.95
2023-03-07T20:15:19.625Z,3.78
2023-03-07T20:19:23.073Z,6.47
2023-03-07T20:23:26.548Z,8.25
2023-03-07T20:27:30.085Z,4.43
2023-03-07T20:31:36.539Z,4.32
2023-03-07T20:35:40.050Z,5.55
2023-03-07T20:39:44.382Z,3.45
2023-03-07T20:43:48.747Z,4.50
2023-03-07T20:47:52.678Z,3.35
2023-03-07T20:51:59.121Z,4.35
2023-03-07T20:56:06.503Z,3.70
2023-03-07T21:00:10.880Z,2.70
2023-03-07T21:04:17.932Z,8.40
2023-03-07T21:08:21.633Z,5.25
2023-03-07T21:12:25.161Z,3.50
2023-03-07T21:16:30.258Z,4.53
2023-03-07T21:20:34.528Z,6.90
2023-03-07T21:24:38.141Z,4.13
2023-03-07T21:28:43.180Z,3.45
2023-03-07T21:32:46.785Z,3.78
2023-03-07T21:36:56.254Z,2.92
2023-03-07T21:41:00.150Z,7.15
2023-03-07T21:45:03.825Z,3.78
2023-03-07T21:49:07.883Z,2.22
2023-03-07T21:53:11.760Z,4.57
2023-03-07T21:57:15.318Z,3.20
2023-03-07T22:01:26.009Z,2.28
2023-03-07T22:05:29.601Z,4.07
2023-03-07T22:09:33.406Z,1.88
2023-03-07T22:13:38.653Z,8.48
2023-03-07T22:17:42.244Z,5.75
2023-03-07T22:21:45.815Z,3.90
2023-03-07T22:25:50.177Z,6.78
2023-03-07T22:29:53.962Z,5.38
2023-03-07T22:34:00.328Z,3.17
2023-03-07T22:38:03.997Z,4.65
2023-03-07T22:42:07.807Z,6.55
2023-03-07T22:46:11.973Z,5.60
2023-03-07T22:50:15.900Z,5.85
2023-03-07T22:54:20.300Z,4.65
2023-03-07T22:58:24.759Z,4.10
2023-03-07T23:02:28.957Z,6.00
2023-03-07T23:06:34.001Z,5.40
2023-03-07T23:10:37.585Z,4.07
2023-03-07T23:14:41.197Z,4.75
2023-03-07T23:18:47.627Z,4.80
2023-03-07T23:22:51.254Z,4.65
2023-03-07T23:26:55.718Z,8.13
2023-03-07T23:31:00.434Z,4.38
2023-03-07T23:35:04.598Z,3.83
2023-03-07T23:39:08.724Z,5.65
2023-03-07T23:43:16.112Z,6.88
2023-03-07T23:47:19.701Z,3.83
2023-03-07T23:51:25.230Z,5.47
2023-03-07T23:55:28.942Z,9.25
2023-03-07T23:59:32.516Z,4.97
